createdAt,value
2022-10-22T00:02:46.042Z,14.15
2022-10-22T00:06:12.066Z,13.98
2022-10-22T00:09:34.073Z,14.02
2022-10-22T00:12:56.099Z,16.38
2022-10-22T00:16:18.374Z,12.45
2022-10-22T00:19:40.942Z,14.48
2022-10-22T00:23:03.086Z,11.65
2022-10-22T00:26:25.183Z,15.50
2022-10-22T00:29:47.190Z,12.77
2022-10-22T00:33:09.168Z,12.00
2022-10-22T00:36:31.184Z,12.65
2022-10-22T00:39:53.193Z,18.55
2022-10-22T00:43:18.023Z,18.80
2022-10-22T00:46:40.026Z,15.75
2022-10-22T00:53:35.985Z,18.27
2022-10-22T00:56:57.967Z,17.35
2022-10-22T01:00:20.350Z,16.58
2022-10-22T01:03:42.411Z,17.38
2022-10-22T01:07:04.629Z,14.40
2022-10-22T01:11:03.527Z,14.98
2022-10-22T01:14:40.611Z,17.42
2022-10-22T01:18:08.051Z,16.55
2022-10-22T01:21:50.429Z,17.90
2022-10-22T01:25:33.631Z,17.38
2022-10-22T01:29:17.190Z,18.80
2022-10-22T01:32:53.040Z,17.17
2022-10-22T01:36:16.535Z,17.48
2022-10-22T01:39:40.179Z,16.52
2022-10-22T01:43:07.354Z,19.77
2022-10-22T01:46:29.886Z,23.15
2022-10-22T01:50:22.232Z,24.75
2022-10-22T01:54:08.816Z,20.55
2022-10-22T01:57:33.801Z,15.80
2022-10-22T02:01:26.345Z,19.85
2022-10-22T02:05:02.519Z,16.05
2022-10-22T02:08:31.031Z,16.83
2022-10-22T02:11:56.034Z,17.10
2022-10-22T02:15:20.403Z,14.77
2022-10-22T02:18:46.612Z,16.92
2022-10-22T02:22:08.935Z,19.58
2022-10-22T02:25:36.981Z,19.90
2022-10-22T02:29:09.528Z,19.48
2022-10-22T02:32:44.739Z,21.15
2022-10-22T02:36:08.057Z,18.77
2022-10-22T02:39:31.627Z,17.55
2022-10-22T02:42:53.720Z,22.13
2022-10-22T02:46:15.840Z,19.05
2022-10-22T02:49:40.708Z,24.20
2022-10-22T02:53:02.956Z,18.77
2022-10-22T02:56:24.951Z,19.90
2022-10-22T02:59:46.935Z,20.55
2022-10-22T03:03:09.102Z,19.50
2022-10-22T03:06:31.255Z,17.13
2022-10-22T03:09:53.332Z,16.90
2022-10-22T03:13:15.306Z,19.10
2022-10-22T03:16:37.399Z,22.30
2022-10-22T03:19:59.369Z,19.92
2022-10-22T03:23:21.441Z,20.80
2022-10-22T03:26:44.983Z,20.83
2022-10-22T03:30:07.894Z,22.00
2022-10-22T03:33:29.960Z,21.23
2022-10-22T03:36:53.164Z,20.38
2022-10-22T03:40:15.760Z,22.60
2022-10-22T03:43:39.171Z,21.88
2022-10-22T03:47:02.639Z,23.95
2022-10-22T03:50:24.979Z,19.48
2022-10-22T03:53:46.949Z,18.98
2022-10-22T03:57:10.144Z,22.98
2022-10-22T04:00:32.430Z,19.40
2022-10-22T04:03:55.114Z,24.42
2022-10-22T04:07:17.139Z,25.45
2022-10-22T04:10:39.229Z,19.38
2022-10-22T04:14:01.277Z,20.20
2022-10-22T04:17:23.297Z,20.52
2022-10-22T04:20:45.398Z,20.08
2022-10-22T04:24:07.538Z,19.45
2022-10-22T04:27:33.632Z,20.80
2022-10-22T04:30:55.740Z,24.55
2022-10-22T04:34:17.832Z,20.45
2022-10-22T04:37:40.085Z,22.38
2022-10-22T04:41:24.279Z,24.30
2022-10-22T04:44:46.705Z,21.02
2022-10-22T04:48:08.791Z,22.13
2022-10-22T04:51:30.789Z,21.73
2022-10-22T04:54:52.746Z,18.85
2022-10-22T04:58:14.785Z,20.88
2022-10-22T05:01:42.986Z,21.02
2022-10-22T05:05:05.583Z,19.88
2022-10-22T05:08:27.599Z,21.02
2022-10-22T05:11:52.935Z,20.48
2022-10-22T05:15:14.997Z,20.55
2022-10-22T05:18:38.476Z,22.65
2022-10-22T05:22:02.285Z,20.30
2022-10-22T05:25:24.315Z,19.85
2022-10-22T05:28:48.405Z,21.83
2022-10-22T05:32:13.450Z,17.80
2022-10-22T05:35:36.551Z,22.17
2022-10-22T05:38:59.231Z,20.73
2022-10-22T05:42:21.304Z,19.83
2022-10-22T05:45:43.363Z,20.75
2022-10-22T05:49:06.798Z,24.15
2022-10-22T05:52:28.800Z,19.45
2022-10-22T05:55:50.865Z,19.88
2022-10-22T05:59:12.853Z,20.63
2022-10-22T06:02:34.935Z,22.98
2022-10-22T06:05:56.989Z,19.65
2022-10-22T06:09:26.419Z,17.48
2022-10-22T06:12:49.753Z,20.70
2022-10-22T06:16:12.236Z,19.10
2022-10-22T06:19:34.229Z,18.85
2022-10-22T06:22:56.233Z,20.48
2022-10-22T06:26:18.253Z,18.85
2022-10-22T06:29:40.315Z,18.58
2022-10-22T06:33:02.309Z,16.10
2022-10-22T06:36:24.773Z,17.13
2022-10-22T06:39:46.839Z,20.85
2022-10-22T06:43:11.643Z,18.08
2022-10-22T06:46:33.749Z,18.13
2022-10-22T06:49:55.762Z,17.63
2022-10-22T06:53:17.831Z,17.75
2022-10-22T06:56:40.176Z,17.20
2022-10-22T07:00:02.366Z,20.70
2022-10-22T07:03:24.452Z,16.67
2022-10-22T07:06:46.572Z,19.30
2022-10-22T07:10:09.115Z,23.55
2022-10-22T07:13:31.185Z,17.52
2022-10-22T07:17:22.824Z,16.40
2022-10-22T07:20:48.592Z,14.02
2022-10-22T07:24:11.163Z,14.60
2022-10-22T07:27:33.235Z,20.48
2022-10-22T07:30:55.264Z,14.65
2022-10-22T07:34:17.622Z,13.10
2022-10-22T07:37:40.047Z,14.07
2022-10-22T07:41:03.041Z,12.38
2022-10-22T07:44:25.080Z,13.00
2022-10-22T07:47:48.434Z,10.27
2022-10-22T07:51:10.565Z,10.50
2022-10-22T07:54:33.374Z,10.48
2022-10-22T07:57:55.550Z,8.75
2022-10-22T08:01:17.666Z,11.25
2022-10-22T08:04:40.678Z,9.27
2022-10-22T08:08:02.807Z,12.90
2022-10-22T08:11:25.320Z,7.97
2022-10-22T08:14:47.332Z,10.13
2022-10-22T08:18:10.472Z,9.13
2022-10-22T08:21:32.637Z,7.88
2022-10-22T08:24:54.708Z,8.95
2022-10-22T08:28:19.877Z,8.45
2022-10-22T08:31:43.949Z,7.90
2022-10-22T08:35:06.348Z,9.68
2022-10-22T08:38:28.462Z,10.20
2022-10-22T08:42:29.268Z,10.85
2022-10-22T08:46:08.063Z,14.00
2022-10-22T08:49:37.242Z,11.50
2022-10-22T08:53:07.055Z,8.85
2022-10-22T08:56:30.207Z,10.45
2022-10-22T09:00:06.518Z,10.95
2022-10-22T09:03:53.070Z,10.32
2022-10-22T09:07:15.305Z,8.15
2022-10-22T09:10:40.906Z,8.13
2022-10-22T09:14:04.647Z,8.13
2022-10-22T09:17:38.710Z,9.68
2022-10-22T09:21:15.703Z,9.68
2022-10-22T09:24:44.235Z,10.20
2022-10-22T09:28:06.292Z,9.93
2022-10-22T09:31:32.367Z,11.88
2022-10-22T09:34:58.364Z,12.05
2022-10-22T09:38:26.602Z,11.00
2022-10-22T09:41:48.566Z,12.32
2022-10-22T09:45:23.160Z,15.98
2022-10-22T09:49:06.921Z,10.18
2022-10-22T09:52:30.962Z,10.25
2022-10-22T09:59:25.032Z,9.50
2022-10-22T10:02:47.082Z,8.15
2022-10-22T10:06:09.359Z,11.25
2022-10-22T10:09:35.515Z,6.47
2022-10-22T10:13:03.257Z,13.68
2022-10-22T10:16:45.542Z,9.55
2022-10-22T10:20:13.538Z,8.98
2022-10-22T10:24:14.516Z,11.70
2022-10-22T10:27:48.974Z,7.17
2022-10-22T10:31:40.122Z,9.43
2022-10-22T10:39:07.837Z,8.25
2022-10-22T10:43:11.206Z,8.68
2022-10-22T10:46:43.071Z,9.43
2022-10-22T10:50:33.034Z,9.38
2022-10-22T10:54:14.045Z,12.40
2022-10-22T10:57:51.409Z,10.02
2022-10-22T11:01:20.340Z,11.77
2022-10-22T11:04:45.314Z,8.98
2022-10-22T11:08:30.418Z,10.88
2022-10-22T11:12:01.486Z,9.07
2022-10-22T11:15:33.743Z,9.57
2022-10-22T11:19:18.509Z,9.90
2022-10-22T11:23:18.677Z,13.27
2022-10-22T11:27:04.768Z,9.55
2022-10-22T11:30:30.550Z,10.75
2022-10-22T11:34:28.392Z,10.50
2022-10-22T11:37:48.776Z,12.25
2022-10-22T11:41:15.884Z,6.50
2022-10-22T11:44:49.569Z,9.73
2022-10-22T11:48:11.533Z,7.45
2022-10-22T11:51:38.914Z,5.00
2022-10-22T11:55:24.199Z,4.85
2022-10-22T11:58:52.330Z,4.00
2022-10-22T12:02:29.493Z,4.38
2022-10-22T12:06:12.386Z,6.57
2022-10-22T12:09:40.841Z,5.95
2022-10-22T12:13:11.983Z,4.45
2022-10-22T12:16:54.656Z,3.90
2022-10-22T12:20:17.642Z,3.05
2022-10-22T12:23:40.246Z,2.00
2022-10-22T12:27:03.578Z,2.60
2022-10-22T12:30:30.534Z,3.47
2022-10-22T12:33:58.059Z,2.45
2022-10-22T12:41:05.714Z,2.47
2022-10-22T12:44:27.727Z,2.25
2022-10-22T12:47:52.603Z,2.25
2022-10-22T12:51:18.703Z,2.45
2022-10-22T12:54:41.277Z,1.80
2022-10-22T12:58:08.151Z,1.80
2022-10-22T13:01:39.035Z,1.77
2022-10-22T13:05:39.286Z,1.90
2022-10-22T13:09:23.946Z,2.28
2022-10-22T13:12:56.381Z,2.35
2022-10-22T13:16:27.768Z,2.97
2022-10-22T13:19:52.846Z,3.03
2022-10-22T13:23:20.444Z,4.53
2022-10-22T13:26:42.403Z,2.30
2022-10-22T13:30:15.472Z,3.03
2022-10-22T13:33:43.614Z,6.50
2022-10-22T13:37:09.275Z,4.65
2022-10-22T13:40:31.440Z,6.80
2022-10-22T13:43:54.512Z,6.13
2022-10-22T13:47:26.957Z,4.50
2022-10-22T13:50:50.321Z,4.78
2022-10-22T13:54:19.709Z,2.55
2022-10-22T13:57:42.135Z,3.03
2022-10-22T14:01:08.751Z,7.63
2022-10-22T14:04:30.723Z,4.90
2022-10-22T14:07:54.311Z,4.15
2022-10-22T14:11:18.302Z,2.75
2022-10-22T14:14:40.437Z,5.97
2022-10-22T14:18:04.878Z,2.33
2022-10-22T14:21:30.178Z,2.78
2022-10-22T14:24:52.387Z,4.28
2022-10-22T14:28:14.643Z,2.42
2022-10-22T14:35:01.394Z,4.53
2022-10-22T14:38:23.704Z,3.17
2022-10-22T14:41:45.898Z,2.50
2022-10-22T14:45:17.222Z,1.73
2022-10-22T14:48:39.512Z,3.65
2022-10-22T14:52:01.806Z,67.63
2022-10-22T14:55:24.272Z,8.57
2022-10-22T14:58:46.331Z,4.32
2022-10-22T15:02:13.619Z,13.82
2022-10-22T15:05:36.456Z,5.25
2022-10-22T15:08:58.778Z,4.32
2022-10-22T15:12:21.135Z,2.00
2022-10-22T15:15:43.132Z,2.35
2022-10-22T15:19:05.637Z,1.77
2022-10-22T15:22:28.706Z,2.63
2022-10-22T15:25:50.903Z,2.00
2022-10-22T15:29:24.306Z,3.20
2022-10-22T15:32:51.209Z,1.80
2022-10-22T15:36:27.933Z,1.48
2022-10-22T15:39:53.159Z,3.38
2022-10-22T15:44:01.241Z,1.42
2022-10-22T15:47:34.005Z,3.70
2022-10-22T15:59:54.771Z,2.00
2022-10-22T16:04:25.741Z,1.58
2022-10-22T16:07:58.509Z,1.98
2022-10-22T16:11:30.012Z,0.75
2022-10-22T16:15:29.012Z,1.75
2022-10-22T16:24:05.960Z,4.03
2022-10-22T16:27:28.603Z,2.85
2022-10-22T16:30:50.707Z,1.70
2022-10-22T16:34:13.280Z,3.40
2022-10-22T16:37:35.530Z,2.78
2022-10-22T16:41:18.173Z,2.17
2022-10-22T16:44:40.327Z,1.27
2022-10-22T16:48:02.399Z,3.10
2022-10-22T16:51:26.748Z,2.17
2022-10-22T16:54:48.709Z,3.30
2022-10-22T16:58:10.840Z,1.73
2022-10-22T17:01:36.722Z,2.42
2022-10-22T17:05:01.646Z,2.17
2022-10-22T17:08:23.655Z,2.80
2022-10-22T17:11:46.421Z,1.77
2022-10-22T17:15:08.780Z,1.90
2022-10-22T17:18:31.617Z,1.92
2022-10-22T17:21:54.332Z,3.30
2022-10-22T17:25:25.096Z,2.15
2022-10-22T17:28:47.495Z,3.13
2022-10-22T17:32:09.476Z,2.15
2022-10-22T17:35:31.680Z,3.33
2022-10-22T17:38:56.838Z,4.35
2022-10-22T17:42:18.896Z,1.98
2022-10-22T17:45:40.951Z,5.75
2022-10-22T17:49:05.555Z,2.20
2022-10-22T17:52:27.656Z,5.28
2022-10-22T17:55:49.708Z,3.05
2022-10-22T17:59:14.221Z,3.92
2022-10-22T18:02:36.281Z,4.45
2022-10-22T18:06:07.130Z,2.80
2022-10-22T18:09:29.174Z,4.90
2022-10-22T18:12:51.410Z,5.22
2022-10-22T18:16:13.468Z,5.82
2022-10-22T18:19:35.696Z,2.42
2022-10-22T18:22:57.738Z,3.22
2022-10-22T18:26:24.259Z,4.85
2022-10-22T18:29:51.585Z,5.15
2022-10-22T18:33:16.734Z,4.43
2022-10-22T18:36:40.194Z,4.70
2022-10-22T18:40:05.305Z,4.20
2022-10-22T18:43:27.689Z,4.53
2022-10-22T18:46:49.655Z,4.80
2022-10-22T18:50:12.653Z,5.65
2022-10-22T18:53:36.596Z,3.92
2022-10-22T18:57:02.517Z,5.55
2022-10-22T19:00:26.707Z,6.35
2022-10-22T19:03:49.469Z,5.85
2022-10-22T19:07:12.273Z,4.63
2022-10-22T19:10:34.827Z,4.93
2022-10-22T19:13:57.054Z,4.75
2022-10-22T19:17:19.027Z,4.10
2022-10-22T19:20:41.571Z,7.35
2022-10-22T19:24:04.018Z,4.60
2022-10-22T19:27:25.994Z,4.78
2022-10-22T19:30:48.030Z,2.85
2022-10-22T19:34:10.414Z,6.05
2022-10-22T19:37:33.675Z,3.08
2022-10-22T19:40:55.818Z,5.47
2022-10-22T19:44:17.957Z,5.25
2022-10-22T19:47:40.335Z,3.63
2022-10-22T19:51:23.680Z,4.22
2022-10-22T19:54:45.789Z,4.05
2022-10-22T19:58:09.014Z,6.45
2022-10-22T20:01:32.082Z,4.13
2022-10-22T20:04:54.328Z,7.15
2022-10-22T20:08:17.278Z,5.15
2022-10-22T20:11:39.644Z,5.15
2022-10-22T20:15:02.451Z,3.90
2022-10-22T20:18:24.677Z,6.00
2022-10-22T20:21:49.066Z,9.85
2022-10-22T20:25:12.582Z,5.38
2022-10-22T20:28:35.136Z,6.93
2022-10-22T20:31:57.400Z,8.60
2022-10-22T20:35:19.708Z,7.65
2022-10-22T20:38:41.746Z,6.22
2022-10-22T20:42:03.853Z,8.02
2022-10-22T20:45:27.319Z,7.40
2022-10-22T20:48:54.281Z,10.15
2022-10-22T20:52:16.405Z,5.38
2022-10-22T20:55:38.382Z,7.40
2022-10-22T20:59:05.433Z,8.77
2022-10-22T21:02:28.511Z,12.63
2022-10-22T21:05:50.616Z,12.32
2022-10-22T21:09:14.336Z,11.43
2022-10-22T21:12:36.365Z,10.43
2022-10-22T21:15:58.773Z,7.80
2022-10-22T21:19:22.650Z,8.20
2022-10-22T21:22:45.000Z,8.68
2022-10-22T21:26:07.177Z,9.25
2022-10-22T21:29:29.190Z,8.75
2022-10-22T21:32:51.825Z,9.00
2022-10-22T21:36:13.956Z,12.77
2022-10-22T21:39:41.103Z,13.05
2022-10-22T21:43:04.382Z,9.98
2022-10-22T21:46:28.558Z,9.13
2022-10-22T21:49:50.604Z,8.20
2022-10-22T21:53:13.429Z,8.20
2022-10-22T21:56:36.528Z,12.20
2022-10-22T21:59:58.530Z,9.75
2022-10-22T22:03:20.534Z,13.93
2022-10-22T22:06:42.576Z,10.00
2022-10-22T22:10:05.339Z,12.10
2022-10-22T22:13:27.328Z,11.70
2022-10-22T22:16:49.317Z,9.00
2022-10-22T22:20:11.677Z,12.63
2022-10-22T22:23:36.234Z,13.57
2022-10-22T22:26:58.206Z,13.63
2022-10-22T22:30:20.441Z,16.20
2022-10-22T22:33:42.588Z,10.52
2022-10-22T22:37:08.432Z,10.77
2022-10-22T22:40:33.033Z,12.98
2022-10-22T22:47:23.064Z,11.93
2022-10-22T22:50:45.051Z,8.93
2022-10-22T22:54:07.307Z,10.57
2022-10-22T22:57:29.539Z,8.82
2022-10-22T23:00:51.604Z,9.60
2022-10-22T23:04:22.856Z,9.80
2022-10-22T23:07:44.792Z,7.18
2022-10-22T23:11:10.624Z,8.45
2022-10-22T23:14:32.594Z,9.77
2022-10-22T23:17:54.867Z,9.10
2022-10-22T23:21:24.202Z,10.00
2022-10-22T23:24:46.252Z,11.80
2022-10-22T23:28:08.275Z,8.20
2022-10-22T23:31:30.350Z,10.57
2022-10-22T23:34:52.827Z,8.05
2022-10-22T23:38:15.009Z,11.13
2022-10-22T23:41:37.655Z,8.32
2022-10-22T23:44:59.681Z,9.40
2022-10-22T23:48:22.419Z,9.55
2022-10-22T23:51:44.456Z,12.00
2022-10-22T23:55:07.111Z,10.35
2022-10-22T23:58:29.131Z,12.60
